Yangon International Airport
VYYY : now visible

Airfield :











YOU CAN JOIN US ON...

 
LOGIN :

Register | Disclaimer

   EN    FR    IT 

 









Legend :    VFR   Marginal VFR   IFR   Intensive IFR   Very Intensive IFR
Visi :
Ceiling :
>= 8 km
>= 3000ft
5 to 8 km
1000 to 3000 ft
1500m to 5 km
500 to 1000 ft
800 to 1500m
200 to 500 ft
< 800m
< 200 ft
Symbols :   Thunderstorms  Fog  Heavy snow  Heavy precipitations  Wind > 20 kt






- Airport Elevation : 109 ft
- IATA code : RGN


VYYY - Yangon International

CURRENT METAR :
  • 280430Z 15004KT 7000 BKN015 FEW020CB BKN100 29/26 Q1010 NOSIG

EXPIRED METARs :
  • 280400Z 12003KT 7000 BKN015 FEW020CB BKN100 29/26 Q1010 NOSIG
  • 280330Z 12003KT 7000 BKN015 FEW020CB BKN100 28/25 Q1011 NOSIG
  • 280300Z 15007KT 7000 BKN018 FEW025CB BKN110 28/25 Q1011
  • 280230Z 16004KT 7000 BKN018 FEW025CB BKN110 28/25 Q1011
  • 280200Z 15005KT 6000 BKN015 FEW020CB BKN100 25/23 Q1011

TAF TAF VYYY
Valid from the 28 at 00:00 until the 29 at 00:00 UTC


272300Z 2800/2824 14006KT 7000 BKN015 FEW020CB BKN100
TEMPO 2800/2806 6000 DZ
TEMPO 2806/2812 5000 -RA
VYYF FIR / Asia



MET'MAP, your aeronautical weather chart ! - Copyright ORBIFLY December 2007 - Disclaimer

ORBIFLY MET'MAP TEAM :

Programming & Development : Alexandra Zaïnal
Concept & original design : Baudouin d'Aumeries
Assistance for programming : Marc-Olivier Méhu
Technical & hardware support : Manuel Goepfert

Contact : metmap@orbifly.com




SOURCES & CREDITS :

   NOAA       Earth
Advisory